Time;durP1;ratioP1;P1;durP2;ratioP2;P2;SDS_P1;SDS_P2;PMS_P1;PMS_P2;Temp;Humidity;BMP_temperature;BMP_pressure;BME280_temperature;BME280_humidity;BME280_pressure;Samples;Min_cycle;Max_cycle;Signal;HPM_P1;HPM_P2
2022/03/14 00:01:59;;;;;;;5.35;4.55;;;;;;;;;;6215833;23;20356;-70
2022/03/14 00:04:24;;;;;;;9.27;8.27;;;;;;;;;;6215711;23;20656;-70
2022/03/14 00:06:51;;;;;;;11.18;10.05;;;;;;;;;;6242367;22;20066;-70
2022/03/14 00:09:17;;;;;;;7.75;7.05;;;;;;;;;;6240384;23;20023;-70
2022/03/14 00:11:44;;;;;;;9.55;8.63;;;;;;;;;;6240346;23;20012;-71
2022/03/14 00:14:10;;;;;;;7.90;5.53;;;;;;;;;;6215891;23;20099;-71
2022/03/14 00:16:39;;;;;;;4.25;3.95;;;;;;;;;;6242037;23;20061;-71
2022/03/14 00:19:06;;;;;;;8.07;7.28;;;;;;;;;;6242376;23;20008;-70
2022/03/14 00:21:35;;;;;;;9.63;8.63;;;;;;;;;;6215090;23;20472;-72
2022/03/14 00:24:01;;;;;;;8.93;6.75;;;;;;;;;;6258692;22;20020;-70
2022/03/14 00:26:27;;;;;;;9.23;7.13;;;;;;;;;;6240200;22;20039;-72
2022/03/14 00:28:53;;;;;;;7.72;6.93;;;;;;;;;;6242460;22;20451;-71
2022/03/14 00:31:20;;;;;;;10.55;6.93;;;;;;;;;;6240733;23;20016;-71
2022/03/14 00:33:46;;;;;;;7.10;6.40;;;;;;;;;;6240777;23;20015;-70
2022/03/14 00:36:12;;;;;;;10.02;8.98;;;;;;;;;;6242271;22;20448;-71
2022/03/14 00:38:38;;;;;;;9.45;8.50;;;;;;;;;;6190345;23;20143;-71
2022/03/14 00:41:04;;;;;;;10.85;6.20;;;;;;;;;;6241992;22;20046;-71
2022/03/14 00:43:31;;;;;;;4.53;4.18;;;;;;;;;;6241786;22;20022;-71
2022/03/14 00:45:57;;;;;;;13.18;7.18;;;;;;;;;;6240567;23;20102;-70
2022/03/14 00:48:22;;;;;;;11.07;8.77;;;;;;;;;;6240697;23;20028;-70
2022/03/14 00:50:49;;;;;;;9.25;8.38;;;;;;;;;;6241613;22;20011;-70
2022/03/14 00:53:15;;;;;;;8.05;7.35;;;;;;;;;;6242185;22;20082;-71
2022/03/14 00:55:41;;;;;;;9.70;8.85;;;;;;;;;;6240350;23;20008;-70
2022/03/14 00:58:09;;;;;;;9.75;9.05;;;;;;;;;;6242002;23;20099;-71
2022/03/14 01:00:35;;;;;;;7.53;6.82;;;;;;;;;;6241681;22;20087;-70
2022/03/14 01:03:01;;;;;;;8.35;7.07;;;;;;;;;;6242001;22;20046;-69
2022/03/14 01:05:28;;;;;;;9.05;8.05;;;;;;;;;;6240380;23;20478;-71
2022/03/14 01:07:55;;;;;;;7.93;6.32;;;;;;;;;;6242002;22;20016;-72
2022/03/14 01:10:23;;;;;;;9.32;8.40;;;;;;;;;;6241647;22;20346;-71
2022/03/14 01:12:49;;;;;;;9.00;8.05;;;;;;;;;;6190341;23;20016;-71
2022/03/14 01:15:15;;;;;;;10.15;8.77;;;;;;;;;;6240254;23;20014;-70
2022/03/14 01:17:41;;;;;;;9.45;8.10;;;;;;;;;;6240225;23;20100;-71
2022/03/14 01:20:08;;;;;;;7.63;6.93;;;;;;;;;;6240229;23;20022;-71
2022/03/14 01:22:34;;;;;;;10.77;7.38;;;;;;;;;;6239995;23;20111;-69
2022/03/14 01:25:01;;;;;;;7.95;6.80;;;;;;;;;;6215203;23;20008;-70
2022/03/14 01:27:28;;;;;;;8.35;7.28;;;;;;;;;;6215820;23;20012;-70
2022/03/14 01:29:55;;;;;;;4.88;4.53;;;;;;;;;;6241613;23;20011;-69
2022/03/14 01:32:21;;;;;;;4.70;4.32;;;;;;;;;;6242039;23;20012;-70
2022/03/14 01:34:47;;;;;;;6.25;5.35;;;;;;;;;;6214800;23;20012;-70
2022/03/14 01:37:13;;;;;;;9.90;9.00;;;;;;;;;;6242705;23;20357;-72
2022/03/14 01:39:39;;;;;;;8.00;7.22;;;;;;;;;;6242656;23;20482;-70
2022/03/14 01:42:05;;;;;;;9.68;8.20;;;;;;;;;;6242148;23;20654;-69
2022/03/14 01:44:31;;;;;;;9.70;8.70;;;;;;;;;;6241976;23;20008;-70
2022/03/14 01:46:59;;;;;;;11.18;8.68;;;;;;;;;;6215393;23;20034;-69
2022/03/14 01:49:25;;;;;;;6.38;5.78;;;;;;;;;;6242695;23;20008;-71
2022/03/14 01:51:55;;;;;;;6.85;6.25;;;;;;;;;;6241734;23;20019;-70
2022/03/14 01:54:21;;;;;;;10.38;7.15;;;;;;;;;;6243699;23;20306;-70
2022/03/14 01:56:47;;;;;;;10.25;7.57;;;;;;;;;;6243365;23;20016;-70
2022/03/14 01:59:14;;;;;;;5.43;4.93;;;;;;;;;;6243643;23;20008;-71
2022/03/14 02:01:40;;;;;;;7.95;7.15;;;;;;;;;;6191249;23;20098;-70
2022/03/14 02:04:08;;;;;;;10.23;7.40;;;;;;;;;;6191701;23;20066;-71
2022/03/14 02:06:35;;;;;;;8.88;6.95;;;;;;;;;;6243437;23;20016;-71
2022/03/14 02:09:03;;;;;;;6.75;4.78;;;;;;;;;;6243776;23;20015;-72
2022/03/14 02:11:29;;;;;;;10.98;7.97;;;;;;;;;;6243645;23;20015;-72
2022/03/14 02:13:55;;;;;;;11.35;8.18;;;;;;;;;;6243443;23;20036;-69
2022/03/14 02:16:21;;;;;;;7.53;6.75;;;;;;;;;;6216750;23;20070;-71
2022/03/14 02:18:46;;;;;;;8.57;7.55;;;;;;;;;;6243471;23;20020;-70
2022/03/14 02:21:13;;;;;;;10.02;7.20;;;;;;;;;;6216602;23;20054;-71
2022/03/14 02:23:40;;;;;;;9.02;7.15;;;;;;;;;;6229418;22;20020;-70
2022/03/14 02:26:06;;;;;;;8.60;7.82;;;;;;;;;;6243449;22;20308;-71
2022/03/14 02:28:32;;;;;;;4.88;4.53;;;;;;;;;;6243797;22;20016;-70
2022/03/14 02:30:58;;;;;;;9.20;8.38;;;;;;;;;;6216420;23;20012;-71
2022/03/14 02:33:24;;;;;;;11.18;8.25;;;;;;;;;;6243455;22;20039;-70
2022/03/14 02:35:50;;;;;;;10.23;8.88;;;;;;;;;;6241527;23;20074;-71
2022/03/14 02:38:17;;;;;;;7.63;6.82;;;;;;;;;;6243308;22;20099;-70
2022/03/14 02:40:44;;;;;;;12.93;9.65;;;;;;;;;;6241333;23;20008;-71
2022/03/14 02:43:15;;;;;;;8.93;8.13;;;;;;;;;;6243261;22;20012;-71
2022/03/14 02:45:46;;;;;;;9.77;8.23;;;;;;;;;;6241530;23;20098;-70
2022/03/14 02:48:13;;;;;;;11.40;8.20;;;;;;;;;;6243498;22;20356;-70
2022/03/14 02:50:42;;;;;;;8.02;7.15;;;;;;;;;;6242814;22;20019;-69
2022/03/14 02:53:08;;;;;;;12.70;8.80;;;;;;;;;;6243294;23;20012;-69
2022/03/14 02:55:35;;;;;;;10.73;9.15;;;;;;;;;;6241726;23;20016;-71
2022/03/14 02:58:01;;;;;;;12.85;9.95;;;;;;;;;;6241734;23;20704;-69
2022/03/14 03:00:27;;;;;;;13.40;8.10;;;;;;;;;;6243321;22;20016;-70
2022/03/14 03:02:53;;;;;;;9.15;7.57;;;;;;;;;;6241309;23;20070;-70
2022/03/14 03:05:19;;;;;;;13.00;11.55;;;;;;;;;;6242455;22;20023;-69
2022/03/14 03:07:47;;;;;;;13.57;11.55;;;;;;;;;;6242733;23;20011;-70
2022/03/14 03:10:13;;;;;;;10.38;9.07;;;;;;;;;;6241509;23;20047;-70
2022/03/14 03:12:40;;;;;;;11.00;9.93;;;;;;;;;;6242987;22;20440;-70
2022/03/14 03:15:07;;;;;;;13.35;10.05;;;;;;;;;;6241640;23;20012;-71
2022/03/14 03:17:33;;;;;;;11.07;9.50;;;;;;;;;;6243183;23;20016;-69
2022/03/14 03:19:59;;;;;;;13.07;10.05;;;;;;;;;;6241127;23;20016;-71
2022/03/14 03:22:26;;;;;;;11.52;10.27;;;;;;;;;;6240894;23;20027;-69
2022/03/14 03:24:51;;;;;;;11.25;10.07;;;;;;;;;;6215795;23;20070;-70
2022/03/14 03:27:17;;;;;;;14.52;11.68;;;;;;;;;;6242748;23;20039;-71
2022/03/14 03:29:44;;;;;;;12.07;10.77;;;;;;;;;;6242739;23;20008;-70
2022/03/14 03:32:10;;;;;;;10.57;8.65;;;;;;;;;;6242599;23;20012;-71
2022/03/14 03:34:36;;;;;;;14.40;10.68;;;;;;;;;;6241256;23;20360;-71
2022/03/14 03:37:02;;;;;;;8.73;7.85;;;;;;;;;;6242430;23;20011;-69
2022/03/14 03:39:30;;;;;;;19.48;11.25;;;;;;;;;;6216318;23;20467;-71
2022/03/14 03:41:56;;;;;;;13.25;11.15;;;;;;;;;;6242463;23;20024;-71
2022/03/14 03:44:22;;;;;;;14.57;10.65;;;;;;;;;;6216397;23;20467;-71
2022/03/14 03:46:48;;;;;;;12.45;11.15;;;;;;;;;;6241872;23;20023;-70
2022/03/14 03:49:14;;;;;;;14.88;11.27;;;;;;;;;;6242874;23;20018;-71
2022/03/14 03:51:41;;;;;;;14.93;12.00;;;;;;;;;;6215644;23;20435;-70
2022/03/14 03:54:07;;;;;;;13.27;11.98;;;;;;;;;;6215910;23;20055;-71
2022/03/14 03:56:35;;;;;;;12.68;11.23;;;;;;;;;;6190661;23;20039;-71
2022/03/14 03:59:01;;;;;;;12.93;9.00;;;;;;;;;;6216028;23;20008;-70
2022/03/14 04:01:30;;;;;;;12.75;10.90;;;;;;;;;;6190469;23;20376;-71
2022/03/14 04:03:58;;;;;;;10.45;9.10;;;;;;;;;;6242208;23;20012;-71
2022/03/14 04:06:30;;;;;;;14.45;10.20;;;;;;;;;;6215680;23;20494;-71
2022/03/14 04:08:56;;;;;;;10.82;9.40;;;;;;;;;;6241766;23;20045;-71
2022/03/14 04:11:22;;;;;;;14.25;10.88;;;;;;;;;;6241714;23;20035;-70
2022/03/14 04:13:57;;;;;;;14.85;10.23;;;;;;;;;;6241726;23;20266;-70
2022/03/14 04:16:23;;;;;;;11.82;10.65;;;;;;;;;;6214923;23;20043;-71
2022/03/14 04:18:52;;;;;;;17.85;11.60;;;;;;;;;;6241781;23;20074;-71
2022/03/14 04:21:18;;;;;;;15.43;12.68;;;;;;;;;;6241448;23;20050;-70
2022/03/14 04:23:44;;;;;;;19.50;13.10;;;;;;;;;;6241392;23;20016;-71
2022/03/14 04:26:10;;;;;;;12.23;10.13;;;;;;;;;;6241896;23;20040;-72
2022/03/14 04:28:36;;;;;;;17.58;12.10;;;;;;;;;;6242407;23;20051;-71
2022/03/14 04:31:05;;;;;;;12.23;10.15;;;;;;;;;;6242022;23;20019;-71
2022/03/14 04:33:31;;;;;;;10.00;9.05;;;;;;;;;;6240785;23;20008;-71
2022/03/14 04:35:57;;;;;;;13.15;10.52;;;;;;;;;;6241745;23;20452;-72
2022/03/14 04:38:24;;;;;;;14.65;9.90;;;;;;;;;;6190665;23;20012;-70
2022/03/14 04:40:50;;;;;;;13.48;10.10;;;;;;;;;;6214979;23;20008;-71
2022/03/14 04:43:16;;;;;;;13.82;10.13;;;;;;;;;;6242241;23;20077;-71
2022/03/14 04:45:42;;;;;;;13.20;10.77;;;;;;;;;;6241900;23;20012;-72
2022/03/14 04:48:08;;;;;;;14.18;11.00;;;;;;;;;;6242211;23;20012;-71
2022/03/14 04:50:35;;;;;;;14.32;11.43;;;;;;;;;;6241745;23;20016;-71
2022/03/14 04:53:02;;;;;;;13.98;10.85;;;;;;;;;;6241957;23;20097;-71
2022/03/14 04:55:27;;;;;;;14.65;10.10;;;;;;;;;;6242187;23;20023;-72
2022/03/14 04:57:53;;;;;;;17.23;11.27;;;;;;;;;;6241958;23;20012;-71
2022/03/14 05:00:20;;;;;;;10.63;8.82;;;;;;;;;;6215118;23;20588;-71
2022/03/14 05:02:46;;;;;;;15.18;11.77;;;;;;;;;;6214643;23;20024;-70
2022/03/14 05:05:12;;;;;;;14.52;11.43;;;;;;;;;;6189796;23;20360;-71
2022/03/14 05:07:39;;;;;;;14.63;11.15;;;;;;;;;;6190872;23;20019;-71
2022/03/14 05:10:08;;;;;;;13.32;11.57;;;;;;;;;;6241522;23;20012;-71
2022/03/14 05:12:34;;;;;;;16.10;11.05;;;;;;;;;;6215308;23;20019;-71
2022/03/14 05:15:00;;;;;;;11.68;10.45;;;;;;;;;;6241957;23;20352;-71
2022/03/14 05:17:29;;;;;;;13.98;12.55;;;;;;;;;;6241969;23;20415;-70
2022/03/14 05:19:55;;;;;;;15.32;11.90;;;;;;;;;;6214856;23;20012;-71
2022/03/14 05:22:21;;;;;;;12.38;11.00;;;;;;;;;;6214079;23;20027;-65
2022/03/14 05:24:50;;;;;;;14.95;11.10;;;;;;;;;;6241621;23;20012;-65
2022/03/14 05:27:15;;;;;;;25.27;14.15;;;;;;;;;;6214965;23;20016;-65
2022/03/14 05:29:41;;;;;;;17.15;11.57;;;;;;;;;;6214899;23;20191;-65
2022/03/14 05:32:08;;;;;;;24.85;15.20;;;;;;;;;;6214318;23;20359;-65
2022/03/14 05:34:35;;;;;;;15.95;12.20;;;;;;;;;;6241923;23;20057;-66
2022/03/14 05:37:01;;;;;;;19.83;11.40;;;;;;;;;;6215129;23;20012;-66
2022/03/14 05:39:27;;;;;;;11.82;9.50;;;;;;;;;;6190277;23;20012;-66
2022/03/14 05:41:53;;;;;;;14.60;12.25;;;;;;;;;;6214435;23;20479;-66
2022/03/14 05:44:20;;;;;;;11.02;8.75;;;;;;;;;;6236877;23;20094;-66
2022/03/14 05:46:45;;;;;;;10.57;9.57;;;;;;;;;;6239461;23;20016;-66
2022/03/14 05:49:12;;;;;;;8.90;6.93;;;;;;;;;;6240804;23;20012;-66
2022/03/14 05:51:39;;;;;;;9.55;7.80;;;;;;;;;;6213875;23;20023;-66
2022/03/14 05:54:04;;;;;;;6.45;5.93;;;;;;;;;;6240266;23;20087;-66
2022/03/14 05:56:31;;;;;;;8.50;7.60;;;;;;;;;;6240410;23;20034;-67
2022/03/14 05:58:59;;;;;;;9.75;6.50;;;;;;;;;;6240047;23;20091;-65
2022/03/14 06:01:24;;;;;;;5.88;5.32;;;;;;;;;;6212975;23;20024;-66
2022/03/14 06:03:52;;;;;;;7.75;6.13;;;;;;;;;;6240320;23;20479;-65
2022/03/14 06:06:18;;;;;;;7.65;6.00;;;;;;;;;;6240315;23;20016;-67
2022/03/14 06:08:44;;;;;;;12.30;7.75;;;;;;;;;;6240270;23;20036;-66
2022/03/14 06:11:12;;;;;;;8.10;6.05;;;;;;;;;;6213298;23;20016;-67
2022/03/14 06:13:39;;;;;;;7.82;7.13;;;;;;;;;;6213883;23;20008;-66
2022/03/14 06:16:05;;;;;;;6.30;5.80;;;;;;;;;;6239371;23;20020;-65
2022/03/14 06:18:31;;;;;;;6.55;5.95;;;;;;;;;;6240303;23;20093;-65
2022/03/14 06:20:57;;;;;;;6.55;5.95;;;;;;;;;;6211368;23;20031;-66
2022/03/14 06:23:23;;;;;;;8.88;5.80;;;;;;;;;;6239552;23;20046;-66
2022/03/14 06:25:51;;;;;;;16.00;11.13;;;;;;;;;;6239930;23;20008;-66
2022/03/14 06:28:17;;;;;;;9.77;6.72;;;;;;;;;;6239575;23;20050;-66
2022/03/14 06:30:43;;;;;;;6.38;5.80;;;;;;;;;;6188092;23;20015;-65
2022/03/14 06:33:09;;;;;;;6.10;5.22;;;;;;;;;;6240021;23;20066;-65
2022/03/14 06:35:35;;;;;;;6.72;5.18;;;;;;;;;;6240266;23;20008;-65
2022/03/14 06:38:04;;;;;;;7.15;6.10;;;;;;;;;;6239901;23;20015;-66
2022/03/14 06:40:30;;;;;;;4.80;4.40;;;;;;;;;;6240603;23;20012;-65
2022/03/14 06:42:57;;;;;;;6.78;4.85;;;;;;;;;;6240835;23;20020;-67
2022/03/14 06:45:23;;;;;;;6.82;4.80;;;;;;;;;;6215094;23;20356;-65
2022/03/14 06:47:52;;;;;;;4.63;3.95;;;;;;;;;;6215198;23;20015;-66
2022/03/14 06:50:18;;;;;;;5.22;4.72;;;;;;;;;;6242069;23;20399;-65
2022/03/14 06:52:44;;;;;;;7.00;4.82;;;;;;;;;;6241700;23;20039;-67
2022/03/14 06:55:11;;;;;;;5.75;4.10;;;;;;;;;;6241451;23;20019;-66
2022/03/14 06:57:37;;;;;;;3.95;3.30;;;;;;;;;;6241939;23;20046;-66
2022/03/14 07:00:04;;;;;;;3.60;3.30;;;;;;;;;;6241488;22;20016;-66
2022/03/14 07:02:30;;;;;;;3.70;3.40;;;;;;;;;;6241570;23;20368;-69
2022/03/14 07:04:58;;;;;;;4.72;4.30;;;;;;;;;;6241239;23;20019;-65
2022/03/14 07:07:24;;;;;;;7.18;5.60;;;;;;;;;;6241843;23;20016;-65
2022/03/14 07:09:50;;;;;;;5.32;3.97;;;;;;;;;;6241009;23;20016;-68
2022/03/14 07:12:16;;;;;;;4.55;4.15;;;;;;;;;;6241564;23;20016;-66
2022/03/14 07:14:42;;;;;;;4.45;3.70;;;;;;;;;;6241651;23;20008;-66
2022/03/14 07:17:08;;;;;;;8.60;6.32;;;;;;;;;;6241403;23;20065;-67
2022/03/14 07:19:34;;;;;;;8.23;4.90;;;;;;;;;;6241783;23;20008;-66
2022/03/14 07:22:00;;;;;;;3.60;3.28;;;;;;;;;;6241392;23;20019;-66
2022/03/14 07:24:26;;;;;;;3.38;3.10;;;;;;;;;;6241767;23;20023;-66
2022/03/14 07:26:52;;;;;;;3.45;3.15;;;;;;;;;;6242091;23;20357;-67
2022/03/14 07:29:18;;;;;;;3.75;2.90;;;;;;;;;;6242556;23;20325;-66
2022/03/14 07:31:44;;;;;;;3.40;2.95;;;;;;;;;;6241896;23;20012;-64
2022/03/14 07:34:11;;;;;;;2.60;2.47;;;;;;;;;;6241472;23;20043;-66
2022/03/14 07:36:37;;;;;;;2.95;2.70;;;;;;;;;;6214762;23;20142;-67
2022/03/14 07:39:06;;;;;;;2.92;2.58;;;;;;;;;;6241476;23;20020;-66
2022/03/14 07:41:32;;;;;;;2.95;2.75;;;;;;;;;;6241486;23;20024;-66
2022/03/14 07:44:00;;;;;;;6.68;4.10;;;;;;;;;;6241484;23;20012;-66
2022/03/14 07:46:26;;;;;;;4.57;3.28;;;;;;;;;;6241762;23;20012;-66
2022/03/14 07:48:52;;;;;;;2.85;2.65;;;;;;;;;;6189396;23;20008;-67
2022/03/14 07:51:18;;;;;;;3.10;2.80;;;;;;;;;;6214475;23;20016;-66
2022/03/14 07:53:44;;;;;;;2.85;2.65;;;;;;;;;;6241644;23;20108;-67
2022/03/14 07:56:14;;;;;;;5.43;3.13;;;;;;;;;;6240919;23;20035;-65
2022/03/14 07:58:41;;;;;;;3.88;3.10;;;;;;;;;;6241300;23;20016;-67
2022/03/14 08:01:06;;;;;;;4.40;3.90;;;;;;;;;;6240199;23;20027;-66
2022/03/14 08:03:32;;;;;;;3.20;2.95;;;;;;;;;;6214685;23;20012;-67
2022/03/14 08:06:01;;;;;;;6.57;3.35;;;;;;;;;;6241006;23;20522;-66
2022/03/14 08:08:28;;;;;;;5.30;4.35;;;;;;;;;;6240813;23;20368;-66
2022/03/14 08:10:57;;;;;;;3.63;3.25;;;;;;;;;;6213560;23;20008;-66
2022/03/14 08:13:23;;;;;;;3.78;3.30;;;;;;;;;;6240950;23;20019;-66
2022/03/14 08:15:49;;;;;;;6.95;3.30;;;;;;;;;;6241067;23;20444;-67
2022/03/14 08:18:15;;;;;;;2.97;2.78;;;;;;;;;;6188856;23;20019;-66
2022/03/14 08:20:41;;;;;;;4.65;3.28;;;;;;;;;;6240693;23;20019;-67
2022/03/14 08:23:07;;;;;;;7.35;3.50;;;;;;;;;;6240238;23;20078;-67
2022/03/14 08:25:34;;;;;;;3.45;3.13;;;;;;;;;;6214040;23;20090;-67
2022/03/14 08:28:00;;;;;;;3.58;3.28;;;;;;;;;;6241053;23;20019;-66
2022/03/14 08:30:27;;;;;;;5.35;3.33;;;;;;;;;;6214018;23;20030;-66
2022/03/14 08:32:56;;;;;;;3.03;2.83;;;;;;;;;;6240141;23;20015;-68
2022/03/14 08:35:21;;;;;;;3.83;3.50;;;;;;;;;;6214362;23;20421;-66
2022/03/14 08:37:48;;;;;;;4.15;3.85;;;;;;;;;;6240650;23;20015;-66
2022/03/14 08:40:15;;;;;;;3.55;3.25;;;;;;;;;;6213701;23;20134;-66
2022/03/14 08:42:41;;;;;;;3.95;2.97;;;;;;;;;;6240144;23;20024;-66
2022/03/14 08:45:10;;;;;;;6.45;3.35;;;;;;;;;;6213946;23;20016;-69
2022/03/14 08:47:36;;;;;;;4.70;3.55;;;;;;;;;;6239877;23;20016;-68
2022/03/14 08:50:04;;;;;;;3.60;2.60;;;;;;;;;;6239995;23;20011;-66
2022/03/14 08:52:30;;;;;;;6.78;3.38;;;;;;;;;;6240352;23;20122;-65
2022/03/14 08:54:56;;;;;;;4.05;3.17;;;;;;;;;;6240702;23;20035;-66
2022/03/14 08:57:22;;;;;;;3.20;2.90;;;;;;;;;;6239326;23;20091;-66
2022/03/14 08:59:49;;;;;;;5.05;2.78;;;;;;;;;;6239237;23;20338;-66
2022/03/14 09:02:15;;;;;;;4.63;3.17;;;;;;;;;;6240333;23;20098;-67
2022/03/14 09:04:44;;;;;;;3.95;3.42;;;;;;;;;;6240519;23;20008;-64
2022/03/14 09:07:10;;;;;;;5.32;2.83;;;;;;;;;;6240265;23;20333;-66
2022/03/14 09:09:36;;;;;;;5.15;2.80;;;;;;;;;;6213604;23;20012;-66
2022/03/14 09:12:02;;;;;;;4.97;2.90;;;;;;;;;;6240206;23;20341;-66
2022/03/14 09:14:31;;;;;;;2.72;2.53;;;;;;;;;;6213388;23;20015;-72
2022/03/14 09:16:57;;;;;;;4.32;3.72;;;;;;;;;;6213165;23;20016;-70
2022/03/14 09:19:27;;;;;;;4.30;3.25;;;;;;;;;;6238661;23;20107;-70
2022/03/14 09:21:58;;;;;;;2.78;2.60;;;;;;;;;;6236790;23;20020;-70
2022/03/14 09:24:26;;;;;;;3.63;2.80;;;;;;;;;;6237485;22;20430;-67
2022/03/14 09:26:55;;;;;;;4.32;2.90;;;;;;;;;;6207551;23;20009;-67
2022/03/14 09:29:22;;;;;;;3.00;2.47;;;;;;;;;;6208224;23;20008;-67
2022/03/14 09:31:49;;;;;;;3.55;3.03;;;;;;;;;;6209713;23;20055;-66
2022/03/14 09:34:14;;;;;;;2.97;2.78;;;;;;;;;;6208093;23;20059;-66
2022/03/14 09:36:40;;;;;;;2.80;2.60;;;;;;;;;;6182545;23;20412;-67
2022/03/14 09:39:08;;;;;;;3.53;3.25;;;;;;;;;;6209511;23;20205;-66
2022/03/14 09:41:33;;;;;;;3.33;3.03;;;;;;;;;;6207773;23;20099;-66
2022/03/14 09:44:00;;;;;;;2.90;2.67;;;;;;;;;;6208623;23;20036;-65
2022/03/14 09:46:26;;;;;;;4.40;2.92;;;;;;;;;;6209325;23;20019;-66
2022/03/14 09:48:52;;;;;;;4.38;2.35;;;;;;;;;;6208439;23;20008;-66
2022/03/14 09:51:18;;;;;;;4.93;3.33;;;;;;;;;;6209701;23;20046;-66
2022/03/14 09:53:44;;;;;;;4.72;3.20;;;;;;;;;;6209951;23;20015;-65
2022/03/14 09:56:10;;;;;;;2.97;2.78;;;;;;;;;;6207396;23;20012;-66
2022/03/14 09:58:36;;;;;;;2.72;2.53;;;;;;;;;;6209488;23;20009;-66
2022/03/14 10:01:03;;;;;;;3.08;2.67;;;;;;;;;;6209660;23;20017;-66
2022/03/14 10:03:29;;;;;;;4.80;2.65;;;;;;;;;;6209859;23;20013;-66
2022/03/14 10:05:56;;;;;;;3.47;3.17;;;;;;;;;;6209736;23;20013;-66
2022/03/14 10:08:22;;;;;;;3.20;2.90;;;;;;;;;;6209079;23;20012;-65
2022/03/14 10:10:49;;;;;;;2.38;2.28;;;;;;;;;;6209438;23;20008;-65
2022/03/14 10:13:16;;;;;;;2.90;2.70;;;;;;;;;;6209313;23;20017;-66
2022/03/14 10:15:42;;;;;;;4.38;2.45;;;;;;;;;;6211486;23;20013;-66
2022/03/14 10:18:12;;;;;;;2.95;2.08;;;;;;;;;;6211261;23;20035;-65
2022/03/14 10:20:41;;;;;;;2.90;2.50;;;;;;;;;;6211811;23;20356;-66
2022/03/14 10:23:07;;;;;;;3.03;2.72;;;;;;;;;;6209688;23;20024;-66
2022/03/14 10:25:34;;;;;;;2.45;2.25;;;;;;;;;;6210704;23;20016;-67
2022/03/14 10:28:03;;;;;;;3.50;3.20;;;;;;;;;;6209612;23;20495;-68
2022/03/14 10:30:32;;;;;;;3.30;2.70;;;;;;;;;;6211964;23;20020;-67
2022/03/14 10:33:05;;;;;;;3.03;2.83;;;;;;;;;;6211112;23;20039;-66
2022/03/14 10:35:34;;;;;;;2.38;2.17;;;;;;;;;;6211729;23;20360;-66
2022/03/14 10:38:01;;;;;;;7.57;2.60;;;;;;;;;;6160251;23;20455;-65
2022/03/14 10:40:30;;;;;;;4.53;3.00;;;;;;;;;;6210090;23;20021;-66
2022/03/14 10:42:56;;;;;;;2.13;2.03;;;;;;;;;;6209726;23;20021;-66
2022/03/14 10:45:22;;;;;;;5.97;2.90;;;;;;;;;;6211668;23;20008;-66
2022/03/14 10:47:56;;;;;;;2.78;2.58;;;;;;;;;;6210026;23;20091;-66
2022/03/14 10:50:29;;;;;;;3.10;2.90;;;;;;;;;;6210329;23;20016;-66
2022/03/14 10:53:09;;;;;;;4.97;2.90;;;;;;;;;;6211186;23;20016;-67
2022/03/14 10:55:36;;;;;;;5.15;2.80;;;;;;;;;;6211720;23;20355;-66
2022/03/14 10:58:09;;;;;;;3.10;2.90;;;;;;;;;;6211110;23;20475;-66
2022/03/14 11:00:45;;;;;;;6.22;2.72;;;;;;;;;;6211446;23;20027;-66
2022/03/14 11:03:11;;;;;;;2.92;2.67;;;;;;;;;;6211219;23;20029;-65
2022/03/14 11:05:43;;;;;;;11.80;2.80;;;;;;;;;;6211322;23;20017;-66
2022/03/14 11:08:28;;;;;;;3.70;2.80;;;;;;;;;;6211077;23;20062;-66
2022/03/14 11:10:55;;;;;;;2.90;2.70;;;;;;;;;;6211432;23;20016;-65
2022/03/14 11:13:20;;;;;;;3.47;3.17;;;;;;;;;;6211418;23;20107;-67
2022/03/14 11:15:46;;;;;;;4.82;2.80;;;;;;;;;;6211731;23;20043;-66
2022/03/14 11:18:13;;;;;;;3.53;3.20;;;;;;;;;;6209471;23;20067;-66
2022/03/14 11:20:39;;;;;;;3.13;2.92;;;;;;;;;;6211233;23;20008;-66
2022/03/14 11:23:05;;;;;;;2.72;2.63;;;;;;;;;;6208736;23;20535;-65
2022/03/14 11:25:31;;;;;;;3.70;3.03;;;;;;;;;;6210940;23;20043;-66
2022/03/14 11:27:57;;;;;;;3.13;2.88;;;;;;;;;;6210483;23;20021;-67
2022/03/14 11:30:23;;;;;;;9.98;3.25;;;;;;;;;;6211381;23;20020;-67
2022/03/14 11:32:49;;;;;;;3.10;2.80;;;;;;;;;;6184167;23;20009;-67
2022/03/14 11:35:15;;;;;;;3.30;3.00;;;;;;;;;;6211083;23;20016;-66
2022/03/14 11:37:42;;;;;;;3.45;2.72;;;;;;;;;;6211447;23;20068;-66
2022/03/14 11:40:08;;;;;;;6.18;3.60;;;;;;;;;;6211127;23;20073;-65
2022/03/14 11:42:34;;;;;;;3.50;3.20;;;;;;;;;;6212281;23;20103;-66
2022/03/14 11:45:02;;;;;;;2.75;2.42;;;;;;;;;;6209323;23;20365;-66
2022/03/14 11:47:29;;;;;;;5.88;2.95;;;;;;;;;;6209990;23;20102;-65
2022/03/14 11:49:55;;;;;;;4.60;2.90;;;;;;;;;;6210947;23;20107;-66
2022/03/14 11:52:24;;;;;;;3.22;2.80;;;;;;;;;;6210247;23;20352;-72
2022/03/14 11:54:50;;;;;;;6.05;2.40;;;;;;;;;;6212163;23;20020;-72
2022/03/14 11:57:33;;;;;;;5.40;2.80;;;;;;;;;;6211026;23;20071;-72
2022/03/14 12:00:20;;;;;;;3.58;3.28;;;;;;;;;;6212386;23;20046;-72
2022/03/14 12:02:50;;;;;;;3.28;2.95;;;;;;;;;;6212443;23;20024;-71
2022/03/14 12:05:40;;;;;;;4.70;2.75;;;;;;;;;;6210989;23;20024;-72
2022/03/14 12:08:07;;;;;;;3.22;2.80;;;;;;;;;;6213013;23;20441;-73
2022/03/14 12:10:33;;;;;;;4.05;3.08;;;;;;;;;;6212843;23;20468;-73
2022/03/14 12:13:01;;;;;;;2.85;2.63;;;;;;;;;;6210109;23;20023;-71
2022/03/14 12:15:37;;;;;;;3.38;3.08;;;;;;;;;;6212575;23;20005;-71
2022/03/14 12:18:22;;;;;;;3.10;2.72;;;;;;;;;;6211779;23;20013;-71
2022/03/14 12:20:51;;;;;;;7.28;2.85;;;;;;;;;;6212037;23;20016;-70
2022/03/14 12:23:27;;;;;;;2.85;2.65;;;;;;;;;;6210245;23;20055;-71
2022/03/14 12:26:22;;;;;;;7.53;3.40;;;;;;;;;;6210737;23;20116;-71
2022/03/14 12:29:33;;;;;;;3.13;2.75;;;;;;;;;;6211982;23;20067;-71
2022/03/14 12:32:31;;;;;;;5.25;2.83;;;;;;;;;;6210652;23;20119;-70
2022/03/14 12:35:27;;;;;;;2.95;2.72;;;;;;;;;;6211970;23;20027;-70
2022/03/14 12:37:56;;;;;;;3.05;2.80;;;;;;;;;;6211532;23;20341;-71
2022/03/14 12:40:21;;;;;;;3.90;3.08;;;;;;;;;;6210590;23;20494;-71
2022/03/14 12:42:51;;;;;;;3.63;3.28;;;;;;;;;;6212032;23;20024;-71
2022/03/14 12:45:24;;;;;;;5.32;2.92;;;;;;;;;;6211753;23;20013;-71
2022/03/14 14:49:27;;;;;;;2.90;2.60;;;;;;;;;;6254864;22;20134;-66
2022/03/14 14:51:56;;;;;;;3.95;2.65;;;;;;;;;;6269602;22;20018;-66
2022/03/14 14:54:23;;;;;;;2.65;1.92;;;;;;;;;;6267854;22;20093;-67
2022/03/14 14:56:49;;;;;;;4.38;2.40;;;;;;;;;;6268828;22;20055;-66
2022/03/14 14:59:16;;;;;;;3.65;2.78;;;;;;;;;;6267915;22;20106;-65
2022/03/14 15:01:42;;;;;;;2.70;2.50;;;;;;;;;;6270345;22;20030;-64
2022/03/14 15:04:11;;;;;;;4.53;2.63;;;;;;;;;;6268093;22;20035;-67
2022/03/14 15:06:37;;;;;;;4.90;2.38;;;;;;;;;;6268107;22;20726;-66
2022/03/14 15:09:03;;;;;;;4.38;2.72;;;;;;;;;;6269360;22;20008;-66
2022/03/14 15:11:29;;;;;;;9.82;3.20;;;;;;;;;;6269178;22;20673;-66
2022/03/14 15:13:58;;;;;;;4.50;2.72;;;;;;;;;;6242632;22;20008;-66
2022/03/14 15:16:24;;;;;;;4.00;2.83;;;;;;;;;;6269233;22;20090;-67
2022/03/14 15:18:54;;;;;;;4.88;3.03;;;;;;;;;;6269827;22;20035;-68
2022/03/14 15:21:23;;;;;;;7.10;3.00;;;;;;;;;;6268466;22;20051;-66
2022/03/14 15:23:49;;;;;;;5.15;2.90;;;;;;;;;;6267946;22;20109;-66
2022/03/14 15:26:15;;;;;;;2.38;2.13;;;;;;;;;;6266526;22;20094;-67
2022/03/14 15:28:43;;;;;;;3.85;2.47;;;;;;;;;;6268300;22;20042;-67
2022/03/14 15:31:09;;;;;;;5.90;2.85;;;;;;;;;;6268138;22;20018;-67
2022/03/14 15:33:35;;;;;;;6.80;3.15;;;;;;;;;;6241420;22;20012;-68
2022/03/14 15:36:01;;;;;;;3.67;2.33;;;;;;;;;;6270094;22;20098;-67
2022/03/14 15:38:30;;;;;;;2.35;2.17;;;;;;;;;;6270383;22;20016;-67
2022/03/14 15:40:56;;;;;;;3.85;2.70;;;;;;;;;;6270916;22;20011;-67
2022/03/14 15:43:22;;;;;;;5.45;2.80;;;;;;;;;;6270736;22;20016;-67
2022/03/14 15:45:50;;;;;;;2.80;2.60;;;;;;;;;;6271060;22;20038;-68
2022/03/14 15:48:16;;;;;;;4.10;3.33;;;;;;;;;;6269739;22;20460;-68
2022/03/14 15:50:44;;;;;;;6.38;3.50;;;;;;;;;;6268229;22;20093;-66
2022/03/14 15:53:10;;;;;;;5.53;3.03;;;;;;;;;;6270197;22;20391;-67
2022/03/14 15:55:37;;;;;;;3.63;2.67;;;;;;;;;;6271051;22;20027;-66
2022/03/14 15:58:05;;;;;;;5.68;3.22;;;;;;;;;;6270692;22;20011;-66
2022/03/14 16:00:31;;;;;;;6.60;3.60;;;;;;;;;;6270830;22;20011;-66
2022/03/14 16:02:57;;;;;;;8.05;3.70;;;;;;;;;;6269024;22;20027;-67
2022/03/14 16:05:24;;;;;;;11.85;4.13;;;;;;;;;;6271093;22;20077;-66
2022/03/14 16:07:49;;;;;;;3.42;3.08;;;;;;;;;;6271686;22;20016;-67
2022/03/14 16:10:16;;;;;;;5.68;3.72;;;;;;;;;;6270320;22;20018;-68
2022/03/14 16:12:43;;;;;;;7.22;3.20;;;;;;;;;;6268399;22;20016;-67
2022/03/14 16:15:12;;;;;;;3.50;3.20;;;;;;;;;;6268635;22;20030;-67
2022/03/14 16:17:38;;;;;;;2.97;2.60;;;;;;;;;;6270003;22;20049;-66
2022/03/14 16:20:04;;;;;;;5.18;3.70;;;;;;;;;;6270374;22;20010;-66
2022/03/14 16:22:31;;;;;;;6.35;3.25;;;;;;;;;;6269442;22;20026;-66
2022/03/14 16:24:57;;;;;;;3.78;3.47;;;;;;;;;;6270104;22;20008;-67
2022/03/14 16:27:23;;;;;;;8.10;4.50;;;;;;;;;;6269896;22;20011;-67
2022/03/14 16:29:48;;;;;;;8.38;3.78;;;;;;;;;;6270349;22;20046;-66
2022/03/14 16:32:15;;;;;;;6.13;4.10;;;;;;;;;;6269685;22;20113;-67
2022/03/14 16:34:43;;;;;;;5.53;3.45;;;;;;;;;;6267861;22;20057;-66
2022/03/14 16:37:09;;;;;;;3.75;3.42;;;;;;;;;;6269260;22;20407;-67
2022/03/14 16:39:36;;;;;;;13.20;4.78;;;;;;;;;;6243371;22;20351;-67
2022/03/14 16:42:02;;;;;;;5.38;4.85;;;;;;;;;;6270865;22;20024;-68